Terminal Aerodrome Forecast
Issued by NWS

Home | Current Version | Previous Version | Text Only | Print | Product List | Glossary On
Versions: 1 2 3 4 5 6 7 8 9 10 11 12 13 14 15 16 17 18 19 20 21 22 23 24 25 26 27
928
FTAK31 PAJN 310522
TAFAYA
TAF
PAYA 310522Z 3106/0106 00000KT P6SM VCSH FEW009 SCT022 OVC045
      TEMPO 3106/3110 4SM -DZ BR BKN009 OVC020
     FM311000 00000KT 3SM BR VCSH BKN007 OVC015
     FM311800 27006KT P6SM SCT008 BKN020 OVC040
     FM010300 27005KT 6SM BR VCSH BKN008 OVC025
      AMD LTD TO CLD VIS AND WIND 3106/3109=

USA.gov is the U.S. government's official web portal to all federal, state and local government web resources and services.